createdAt,value
2023-01-07T00:01:34.780Z,26.85
2023-01-07T00:04:04.690Z,26.80
2023-01-07T00:06:35.616Z,26.42
2023-01-07T00:09:05.827Z,29.05
2023-01-07T00:11:38.659Z,26.08
2023-01-07T00:14:08.884Z,26.98
2023-01-07T00:16:37.383Z,25.55
2023-01-07T00:19:07.030Z,27.45
2023-01-07T00:21:34.806Z,25.35
2023-01-07T00:24:05.235Z,28.23
2023-01-07T00:26:37.868Z,27.90
2023-01-07T00:29:07.260Z,28.58
2023-01-07T00:31:37.662Z,29.58
2023-01-07T00:34:06.450Z,27.60
2023-01-07T00:36:37.667Z,28.42
2023-01-07T00:39:12.938Z,28.00
2023-01-07T00:41:40.808Z,29.17
2023-01-07T00:44:08.880Z,28.02
2023-01-07T00:46:36.618Z,28.08
2023-01-07T00:49:04.660Z,28.23
2023-01-07T00:51:32.360Z,29.33
2023-01-07T00:54:00.308Z,30.10
2023-01-07T00:56:27.948Z,28.08
2023-01-07T00:58:55.965Z,30.08
2023-01-07T01:01:23.862Z,30.10
2023-01-07T01:03:51.893Z,29.90
2023-01-07T01:06:19.570Z,32.67
2023-01-07T01:08:48.004Z,31.13
2023-01-07T01:11:17.134Z,30.13
2023-01-07T01:13:46.433Z,32.85
2023-01-07T01:16:17.195Z,30.40
2023-01-07T01:18:46.436Z,31.75
2023-01-07T01:21:16.136Z,41.10
2023-01-07T01:23:44.789Z,31.35
2023-01-07T01:26:15.068Z,28.83
2023-01-07T01:28:43.872Z,30.85
2023-01-07T01:31:13.896Z,29.27
2023-01-07T01:33:49.156Z,29.55
2023-01-07T01:36:20.531Z,29.30
2023-01-07T01:38:48.576Z,29.08
2023-01-07T01:41:16.606Z,31.25
2023-01-07T01:43:46.462Z,31.83
2023-01-07T01:46:35.649Z,31.83
2023-01-07T01:49:19.411Z,31.02
2023-01-07T01:51:54.206Z,31.65
2023-01-07T01:54:22.414Z,29.15
2023-01-07T01:56:55.929Z,31.45
2023-01-07T01:59:30.970Z,29.83
2023-01-07T02:02:04.097Z,31.50
2023-01-07T02:04:33.332Z,30.27
2023-01-07T02:07:06.765Z,31.58
2023-01-07T02:09:37.248Z,31.67
2023-01-07T02:12:38.522Z,29.08
2023-01-07T02:15:13.709Z,31.83
2023-01-07T02:17:55.085Z,32.83
2023-01-07T02:20:35.887Z,34.42
2023-01-07T02:23:41.949Z,31.52
2023-01-07T02:26:34.280Z,35.72
2023-01-07T02:29:11.204Z,29.70
2023-01-07T02:32:09.812Z,30.40
2023-01-07T02:34:52.025Z,31.60
2023-01-07T02:37:37.929Z,34.40
2023-01-07T02:40:24.440Z,34.47
2023-01-07T02:43:04.598Z,35.10
2023-01-07T02:45:47.611Z,33.60
2023-01-07T02:48:19.905Z,32.28
2023-01-07T02:50:47.620Z,33.45
2023-01-07T02:53:19.639Z,32.85
2023-01-07T02:55:52.608Z,31.10
2023-01-07T02:58:25.753Z,30.92
2023-01-07T03:01:11.970Z,31.58
2023-01-07T03:04:06.402Z,31.27
2023-01-07T03:06:45.722Z,31.92
2023-01-07T03:09:33.156Z,28.90
2023-01-07T03:12:24.519Z,32.17
2023-01-07T03:15:01.627Z,31.42
2023-01-07T03:17:35.503Z,29.60
2023-01-07T03:20:06.056Z,30.38
2023-01-07T03:22:36.649Z,29.42
2023-01-07T03:25:05.925Z,28.20
2023-01-07T03:27:36.832Z,27.27
2023-01-07T03:30:10.232Z,26.83
2023-01-07T03:33:01.451Z,26.75
2023-01-07T03:35:33.000Z,26.25
2023-01-07T03:38:03.119Z,26.50
2023-01-07T03:40:32.576Z,30.02
2023-01-07T03:43:00.649Z,26.55
2023-01-07T03:45:29.489Z,27.83
2023-01-07T03:47:59.541Z,28.23
2023-01-07T03:50:34.643Z,27.55
2023-01-07T03:53:03.167Z,28.77
2023-01-07T03:55:34.327Z,28.27
2023-01-07T03:58:02.562Z,26.80
2023-01-07T04:00:30.711Z,27.35
2023-01-07T04:03:11.946Z,27.67
2023-01-07T04:05:43.140Z,27.55
2023-01-07T04:08:12.360Z,26.23
2023-01-07T04:10:41.004Z,28.15
2023-01-07T04:13:09.299Z,27.48
2023-01-07T04:15:37.949Z,27.45
2023-01-07T04:18:05.698Z,28.85
2023-01-07T04:20:33.740Z,30.25
2023-01-07T04:23:01.503Z,27.80
2023-01-07T04:25:32.295Z,29.38
2023-01-07T04:28:02.561Z,26.80
2023-01-07T04:30:30.813Z,27.88
2023-01-07T04:32:58.500Z,27.88
2023-01-07T04:35:26.831Z,26.73
2023-01-07T04:37:54.628Z,28.35
2023-01-07T04:40:22.639Z,28.50
2023-01-07T04:42:50.312Z,27.42
2023-01-07T04:45:18.579Z,26.23
2023-01-07T04:47:46.518Z,27.20
2023-01-07T04:50:15.594Z,27.90
2023-01-07T04:52:43.463Z,28.75
2023-01-07T04:55:11.517Z,28.95
2023-01-07T04:57:39.591Z,29.38
2023-01-07T05:00:09.758Z,29.55
2023-01-07T05:02:38.233Z,32.33
2023-01-07T05:05:06.826Z,29.38
2023-01-07T05:07:36.054Z,31.85
2023-01-07T05:10:05.020Z,29.15
2023-01-07T05:12:35.437Z,30.90
2023-01-07T05:15:05.780Z,30.23
2023-01-07T05:17:35.599Z,27.90
2023-01-07T05:20:07.755Z,28.33
2023-01-07T05:22:37.444Z,27.35
2023-01-07T05:25:06.607Z,29.85
2023-01-07T05:27:34.332Z,29.85
2023-01-07T05:30:05.228Z,28.80
2023-01-07T05:32:32.993Z,27.65
2023-01-07T05:35:02.039Z,29.73
2023-01-07T05:37:30.096Z,29.73
2023-01-07T05:39:58.880Z,29.65
2023-01-07T05:42:26.723Z,31.00
2023-01-07T05:44:55.041Z,29.15
2023-01-07T05:47:22.843Z,29.63
2023-01-07T05:49:51.028Z,30.05
2023-01-07T05:52:18.785Z,30.55
2023-01-07T05:54:46.766Z,28.88
2023-01-07T05:57:14.487Z,30.10
2023-01-07T05:59:42.465Z,36.90
2023-01-07T06:02:10.317Z,32.45
2023-01-07T06:04:38.376Z,28.98
2023-01-07T06:07:06.170Z,32.33
2023-01-07T06:09:34.381Z,32.38
2023-01-07T06:12:02.084Z,33.00
2023-01-07T06:14:30.075Z,29.92
2023-01-07T06:16:57.778Z,30.90
2023-01-07T06:19:26.550Z,30.60
2023-01-07T06:21:54.254Z,30.52
2023-01-07T06:24:22.247Z,29.33
2023-01-07T06:26:50.123Z,26.10
2023-01-07T06:29:18.808Z,28.30
2023-01-07T06:31:46.520Z,26.60
2023-01-07T06:34:14.557Z,25.27
2023-01-07T06:36:42.321Z,24.00
2023-01-07T06:39:11.194Z,25.95
2023-01-07T06:41:38.967Z,24.33
2023-01-07T06:44:07.150Z,25.63
2023-01-07T06:46:34.938Z,24.52
2023-01-07T06:49:03.561Z,24.35
2023-01-07T06:51:31.464Z,24.50
2023-01-07T06:53:59.577Z,24.73
2023-01-07T06:56:27.269Z,23.80
2023-01-07T06:58:55.213Z,24.27
2023-01-07T07:01:23.109Z,24.35
2023-01-07T07:03:51.126Z,23.60
2023-01-07T07:06:18.975Z,24.23
2023-01-07T07:08:47.154Z,25.17
2023-01-07T07:11:14.842Z,25.50
2023-01-07T07:13:42.979Z,25.63
2023-01-07T07:16:10.727Z,25.17
2023-01-07T07:18:38.838Z,23.92
2023-01-07T07:21:06.641Z,24.83
2023-01-07T07:23:34.663Z,23.65
2023-01-07T07:26:02.421Z,23.05
2023-01-07T07:28:30.325Z,24.38
2023-01-07T07:30:58.157Z,25.58
2023-01-07T07:33:26.188Z,27.52
2023-01-07T07:35:55.275Z,32.17
2023-01-07T07:38:23.408Z,33.55
2023-01-07T07:40:51.195Z,25.60
2023-01-07T07:43:19.305Z,24.63
2023-01-07T07:45:46.999Z,26.80
2023-01-07T07:48:15.895Z,23.77
2023-01-07T07:50:44.139Z,24.65
2023-01-07T07:53:12.262Z,25.15
2023-01-07T07:55:40.687Z,25.75
2023-01-07T07:58:08.701Z,24.85
2023-01-07T08:00:36.490Z,24.30
2023-01-07T08:03:05.367Z,26.65
2023-01-07T08:05:33.232Z,25.50
2023-01-07T08:08:01.759Z,24.02
2023-01-07T08:10:30.067Z,24.13
2023-01-07T08:12:58.016Z,24.17
2023-01-07T08:15:25.773Z,24.23
2023-01-07T08:18:05.454Z,23.00
2023-01-07T08:20:34.775Z,23.50
2023-01-07T08:23:04.618Z,24.42
2023-01-07T08:25:33.698Z,23.10
2023-01-07T08:28:02.625Z,23.50
2023-01-07T08:30:30.891Z,22.42
2023-01-07T08:32:59.471Z,23.13
2023-01-07T08:35:27.207Z,21.77
2023-01-07T08:38:05.671Z,20.83
2023-01-07T08:40:34.314Z,23.33
2023-01-07T08:43:06.215Z,22.80
2023-01-07T08:45:34.775Z,21.33
2023-01-07T08:48:03.366Z,21.52
2023-01-07T08:50:33.334Z,21.42
2023-01-07T08:53:01.792Z,22.70
2023-01-07T08:55:29.608Z,21.95
2023-01-07T08:57:58.240Z,21.30
2023-01-07T09:00:26.044Z,23.23
2023-01-07T09:02:54.040Z,21.67
2023-01-07T09:05:22.371Z,21.67
2023-01-07T09:07:53.405Z,22.13
2023-01-07T09:10:21.421Z,22.42
2023-01-07T09:12:49.602Z,22.65
2023-01-07T09:15:17.455Z,21.27
2023-01-07T09:17:45.813Z,23.50
2023-01-07T09:20:13.700Z,21.20
2023-01-07T09:22:41.729Z,22.08
2023-01-07T09:25:09.649Z,23.23
2023-01-07T09:27:38.446Z,22.08
2023-01-07T09:30:08.105Z,22.50
2023-01-07T09:32:36.289Z,22.75
2023-01-07T09:35:05.011Z,21.63
2023-01-07T09:37:33.338Z,22.60
2023-01-07T09:40:01.320Z,22.85
2023-01-07T09:42:56.262Z,23.02
2023-01-07T09:47:59.983Z,20.95
2023-01-07T09:50:42.812Z,23.67
2023-01-07T09:53:34.291Z,22.17
2023-01-07T09:56:10.687Z,21.20
2023-01-07T09:58:45.119Z,21.75
2023-01-07T10:01:24.439Z,21.77
2023-01-07T10:04:13.421Z,21.38
2023-01-07T10:07:11.391Z,20.30
2023-01-07T10:09:59.766Z,21.77
2023-01-07T10:12:46.348Z,22.17
2023-01-07T10:15:33.975Z,24.48
2023-01-07T10:18:22.216Z,22.33
2023-01-07T10:21:06.686Z,22.85
2023-01-07T10:26:14.129Z,23.70
2023-01-07T10:29:00.193Z,23.02
2023-01-07T10:31:30.222Z,23.70
2023-01-07T10:34:00.164Z,24.02
2023-01-07T10:36:38.514Z,24.88
2023-01-07T10:39:14.950Z,25.55
2023-01-07T10:41:59.205Z,25.90
2023-01-07T10:44:26.803Z,27.42
2023-01-07T10:47:52.281Z,26.70
2023-01-07T10:50:27.625Z,26.05
2023-01-07T10:53:22.778Z,26.50
2023-01-07T10:56:05.951Z,26.85
2023-01-07T10:58:43.211Z,27.23
2023-01-07T11:01:38.140Z,25.98
2023-01-07T11:04:13.378Z,25.55
2023-01-07T11:07:04.518Z,27.13
2023-01-07T11:09:45.122Z,25.67
2023-01-07T11:12:41.560Z,26.42
2023-01-07T11:15:19.106Z,26.20
2023-01-07T11:17:59.364Z,26.77
2023-01-07T11:20:49.883Z,25.67
2023-01-07T11:23:34.483Z,25.77
2023-01-07T11:26:17.188Z,26.50
2023-01-07T11:28:53.375Z,26.17
2023-01-07T11:31:33.189Z,25.42
2023-01-07T11:34:04.457Z,24.90
2023-01-07T11:36:43.006Z,24.35
2023-01-07T11:39:21.606Z,25.13
2023-01-07T11:41:58.192Z,25.67
2023-01-07T11:44:26.867Z,26.80
2023-01-07T11:46:55.796Z,25.33
2023-01-07T11:49:39.227Z,25.75
2023-01-07T11:52:17.040Z,25.88
2023-01-07T11:54:53.327Z,25.80
2023-01-07T11:57:28.015Z,24.50
2023-01-07T12:00:17.530Z,24.25
2023-01-07T12:02:58.925Z,24.17
2023-01-07T12:05:27.873Z,27.58
2023-01-07T12:07:58.084Z,24.25
2023-01-07T12:10:27.555Z,25.27
2023-01-07T12:12:55.872Z,26.77
2023-01-07T12:15:30.844Z,25.73
2023-01-07T12:18:07.999Z,25.27
2023-01-07T12:20:44.832Z,28.08
2023-01-07T12:23:44.609Z,36.45
2023-01-07T12:26:19.754Z,26.40
2023-01-07T12:29:08.652Z,28.67
2023-01-07T12:32:21.153Z,25.95
2023-01-07T12:35:15.464Z,23.73
2023-01-07T12:37:46.472Z,23.83
2023-01-07T12:40:16.166Z,25.92
2023-01-07T12:43:02.446Z,26.15
2023-01-07T12:45:43.985Z,28.08
2023-01-07T12:48:32.018Z,26.92
2023-01-07T12:51:04.505Z,27.58
2023-01-07T12:54:00.622Z,28.00
2023-01-07T12:56:37.648Z,27.52
2023-01-07T12:59:46.018Z,27.10
2023-01-07T13:02:37.413Z,28.48
2023-01-07T13:05:16.511Z,27.38
2023-01-07T13:08:09.690Z,29.98
2023-01-07T13:10:43.255Z,29.77
2023-01-07T13:13:25.002Z,29.55
2023-01-07T13:15:53.221Z,29.90
2023-01-07T13:18:22.473Z,28.55
2023-01-07T13:21:11.767Z,29.02
2023-01-07T13:24:19.102Z,31.05
2023-01-07T13:27:09.561Z,29.23
2023-01-07T13:29:59.562Z,29.27
2023-01-07T13:32:47.197Z,30.73
2023-01-07T13:35:30.089Z,30.33
2023-01-07T13:38:22.848Z,31.63
2023-01-07T13:41:15.016Z,30.85
2023-01-07T13:44:12.423Z,29.85
2023-01-07T13:46:44.834Z,30.00
2023-01-07T13:49:31.221Z,29.95
2023-01-07T13:52:23.543Z,29.33
2023-01-07T13:54:51.461Z,31.35
2023-01-07T13:57:43.294Z,29.52
2023-01-07T14:00:41.928Z,31.88
2023-01-07T14:03:28.239Z,32.08
2023-01-07T14:06:20.802Z,32.25
2023-01-07T14:09:07.076Z,30.63
2023-01-07T14:11:36.185Z,31.77
2023-01-07T14:14:26.080Z,33.30
2023-01-07T14:17:10.608Z,31.02
2023-01-07T14:19:50.319Z,31.55
2023-01-07T14:22:46.567Z,34.55
2023-01-07T14:25:26.698Z,36.60
2023-01-07T14:27:57.533Z,38.72
2023-01-07T14:30:47.235Z,39.63
2023-01-07T14:33:26.912Z,37.50
2023-01-07T14:35:59.487Z,33.10
2023-01-07T14:38:30.334Z,37.45
2023-01-07T14:41:09.356Z,31.13
2023-01-07T14:43:48.908Z,27.98
2023-01-07T14:46:23.163Z,27.38
2023-01-07T14:49:02.983Z,26.45
2023-01-07T14:51:50.333Z,26.77
2023-01-07T14:54:30.185Z,27.55
2023-01-07T14:57:29.342Z,28.10
2023-01-07T15:00:02.457Z,27.10
2023-01-07T15:03:04.043Z,26.40
2023-01-07T15:05:43.778Z,25.13
2023-01-07T15:08:37.031Z,24.63
2023-01-07T15:11:27.074Z,25.73
2023-01-07T15:14:25.705Z,24.30
2023-01-07T15:16:54.527Z,25.20
2023-01-07T15:19:22.516Z,24.13
2023-01-07T15:21:52.966Z,24.15
2023-01-07T15:24:33.513Z,24.65
2023-01-07T15:27:23.197Z,24.33
2023-01-07T15:30:25.083Z,23.88
2023-01-07T15:33:01.665Z,23.35
2023-01-07T15:35:34.211Z,24.55
2023-01-07T15:38:05.135Z,24.05
2023-01-07T15:40:33.278Z,22.08
2023-01-07T15:43:01.369Z,21.48
2023-01-07T15:45:29.946Z,22.10
2023-01-07T15:48:13.382Z,22.27
2023-01-07T15:50:46.189Z,23.13
2023-01-07T15:53:13.789Z,21.45
2023-01-07T15:55:56.435Z,22.00
2023-01-07T15:58:35.759Z,20.70
2023-01-07T16:01:05.121Z,20.77
2023-01-07T16:03:40.533Z,20.08
2023-01-07T16:06:31.026Z,19.08
2023-01-07T16:08:59.821Z,19.38
2023-01-07T16:11:31.763Z,19.08
2023-01-07T16:14:02.130Z,18.77
2023-01-07T16:16:31.985Z,19.00
2023-01-07T16:19:03.895Z,18.75
2023-01-07T16:21:39.646Z,18.88
2023-01-07T16:24:07.616Z,17.70
2023-01-07T16:26:38.734Z,18.67
2023-01-07T16:29:24.174Z,18.95
2023-01-07T16:31:53.067Z,19.83
2023-01-07T16:34:26.929Z,27.52
2023-01-07T16:36:59.186Z,28.27
2023-01-07T16:39:42.266Z,32.47
2023-01-07T16:42:27.249Z,23.48
2023-01-07T16:44:54.888Z,30.05
2023-01-07T16:47:28.095Z,30.35
2023-01-07T16:49:59.257Z,31.67
2023-01-07T16:52:33.670Z,31.15
2023-01-07T16:55:01.616Z,25.00
2023-01-07T16:57:39.823Z,24.58
2023-01-07T17:00:18.883Z,20.42
2023-01-07T17:02:58.687Z,23.80
2023-01-07T17:05:30.436Z,32.28
2023-01-07T17:08:05.686Z,23.08
2023-01-07T17:10:38.846Z,26.38
2023-01-07T17:13:16.045Z,36.47
2023-01-07T17:15:44.321Z,29.92
2023-01-07T17:18:12.268Z,31.52
2023-01-07T17:20:52.686Z,32.20
2023-01-07T17:23:27.102Z,36.42
2023-01-07T17:26:03.658Z,36.40
2023-01-07T17:28:42.899Z,44.85
2023-01-07T17:31:10.623Z,37.58
2023-01-07T17:33:38.560Z,33.45
2023-01-07T17:36:06.790Z,35.22
2023-01-07T17:38:36.190Z,33.75
2023-01-07T17:41:04.124Z,29.02
2023-01-07T17:43:34.899Z,32.42
2023-01-07T17:46:08.743Z,28.40
2023-01-07T17:51:07.261Z,29.75
2023-01-07T17:53:49.432Z,27.30
2023-01-07T17:56:17.222Z,26.95
2023-01-07T17:58:45.353Z,25.02
2023-01-07T18:01:19.326Z,26.63
2023-01-07T18:03:48.542Z,26.52
2023-01-07T18:06:24.821Z,30.35
2023-01-07T18:08:53.427Z,30.60
2023-01-07T18:11:43.022Z,28.20
2023-01-07T18:14:13.522Z,32.00
2023-01-07T18:16:41.715Z,30.50
2023-01-07T18:19:13.631Z,30.23
2023-01-07T18:21:46.131Z,30.88
2023-01-07T18:24:19.864Z,32.13
2023-01-07T18:26:50.654Z,31.70
2023-01-07T18:29:23.862Z,33.10
2023-01-07T18:31:51.888Z,36.80
2023-01-07T18:34:19.884Z,39.00
2023-01-07T18:36:48.345Z,39.03
2023-01-07T18:39:20.634Z,39.03
2023-01-07T18:41:50.096Z,38.25
2023-01-07T18:44:19.255Z,40.20
2023-01-07T18:46:47.313Z,41.03
2023-01-07T18:49:15.693Z,39.47
2023-01-07T18:51:45.922Z,39.10
2023-01-07T18:54:14.493Z,39.90
2023-01-07T18:56:42.475Z,39.17
2023-01-07T18:59:12.040Z,39.53
2023-01-07T19:01:40.413Z,40.08
2023-01-07T19:04:08.573Z,40.65
2023-01-07T19:06:43.894Z,40.83
2023-01-07T19:09:18.034Z,37.63
2023-01-07T19:11:46.114Z,39.25
2023-01-07T19:14:15.313Z,34.95
2023-01-07T19:16:43.478Z,39.08
2023-01-07T19:19:11.497Z,38.70
2023-01-07T19:21:39.118Z,38.85
2023-01-07T19:24:07.473Z,39.63
2023-01-07T19:26:42.890Z,38.38
2023-01-07T19:29:13.916Z,38.17
2023-01-07T19:31:44.485Z,37.80
2023-01-07T19:34:13.418Z,41.22
2023-01-07T19:36:44.977Z,39.63
2023-01-07T19:39:18.802Z,42.47
2023-01-07T19:41:46.860Z,40.55
2023-01-07T19:44:15.311Z,40.25
2023-01-07T19:46:44.106Z,41.58
2023-01-07T19:49:13.556Z,39.88
2023-01-07T19:51:42.245Z,41.22
2023-01-07T19:54:17.950Z,40.58
2023-01-07T19:56:45.688Z,40.10
2023-01-07T19:59:13.675Z,42.63
2023-01-07T20:01:43.599Z,40.75
2023-01-07T20:04:11.619Z,41.83
2023-01-07T20:06:39.519Z,42.75
2023-01-07T20:09:10.963Z,39.72
2023-01-07T20:11:39.740Z,40.78
2023-01-07T20:14:07.848Z,41.38
2023-01-07T20:16:36.969Z,41.40
2023-01-07T20:19:06.453Z,41.70
2023-01-07T20:21:34.345Z,41.78
2023-01-07T20:24:02.426Z,42.22
2023-01-07T20:26:32.212Z,42.78
2023-01-07T20:29:01.973Z,38.00
2023-01-07T20:31:31.029Z,41.38
2023-01-07T20:34:00.121Z,44.80
2023-01-07T20:36:30.858Z,40.25
2023-01-07T20:39:05.247Z,46.17
2023-01-07T20:41:34.871Z,46.85
2023-01-07T20:44:04.545Z,45.65
2023-01-07T20:46:34.899Z,44.40
2023-01-07T20:49:03.050Z,45.28
2023-01-07T20:51:31.121Z,45.95
2023-01-07T20:53:59.102Z,41.95
2023-01-07T20:56:31.811Z,44.33
2023-01-07T20:59:01.965Z,46.75
2023-01-07T21:01:35.724Z,46.72
2023-01-07T21:04:03.935Z,46.22
2023-01-07T21:06:31.895Z,48.00
2023-01-07T21:09:00.154Z,41.60
2023-01-07T21:11:27.786Z,47.47
2023-01-07T21:13:56.466Z,44.03
2023-01-07T21:16:25.136Z,43.08
2023-01-07T21:18:53.142Z,46.63
2023-01-07T21:21:27.682Z,46.03
2023-01-07T21:26:16.458Z,44.03
2023-01-07T21:28:44.805Z,43.60
2023-01-07T21:31:15.944Z,41.53
2023-01-07T21:33:44.759Z,38.42
2023-01-07T21:36:18.328Z,43.65
2023-01-07T21:41:16.332Z,37.58
2023-01-07T21:43:45.512Z,42.45
2023-01-07T21:46:13.831Z,43.05
2023-01-07T21:48:46.538Z,42.92
2023-01-07T21:51:26.449Z,42.60
2023-01-07T21:53:58.370Z,40.28
2023-01-07T21:56:32.605Z,44.78
2023-01-07T21:59:01.152Z,44.28
2023-01-07T22:01:29.555Z,43.50
2023-01-07T22:03:59.518Z,41.05
2023-01-07T22:06:33.015Z,42.65
2023-01-07T22:09:05.070Z,42.85
2023-01-07T22:11:34.355Z,40.90
2023-01-07T22:14:02.602Z,35.13
2023-01-07T22:16:32.126Z,39.72
2023-01-07T22:19:01.330Z,39.85
2023-01-07T22:21:31.127Z,41.10
2023-01-07T22:23:59.111Z,37.85
2023-01-07T22:26:26.758Z,42.33
2023-01-07T22:29:02.627Z,43.55
2023-01-07T22:31:33.924Z,41.92
2023-01-07T22:34:02.329Z,41.75
2023-01-07T22:36:36.342Z,41.92
2023-01-07T22:39:10.288Z,40.50
2023-01-07T22:41:38.405Z,37.45
2023-01-07T22:44:14.013Z,34.60
2023-01-07T22:46:45.386Z,35.67
2023-01-07T22:49:13.997Z,35.33
2023-01-07T22:51:46.271Z,33.35
2023-01-07T22:54:15.240Z,31.77
2023-01-07T22:56:44.137Z,25.67
2023-01-07T22:59:12.559Z,32.85
2023-01-07T23:01:40.221Z,31.63
2023-01-07T23:04:08.324Z,31.48
2023-01-07T23:06:36.100Z,31.42
2023-01-07T23:09:04.601Z,31.88
2023-01-07T23:11:48.736Z,31.42
2023-01-07T23:14:22.163Z,30.83
2023-01-07T23:16:51.347Z,28.83
2023-01-07T23:19:20.553Z,27.35
2023-01-07T23:21:52.797Z,29.08
2023-01-07T23:24:21.546Z,29.85
2023-01-07T23:26:51.412Z,29.25
2023-01-07T23:29:19.971Z,29.83
2023-01-07T23:31:48.285Z,29.42
2023-01-07T23:34:16.749Z,26.17
2023-01-07T23:36:44.421Z,29.23
2023-01-07T23:39:12.995Z,29.98
2023-01-07T23:41:40.858Z,28.88
2023-01-07T23:44:08.777Z,28.58
2023-01-07T23:46:36.613Z,27.92
2023-01-07T23:49:04.657Z,26.77
2023-01-07T23:51:32.261Z,28.23
2023-01-07T23:54:00.312Z,27.48
2023-01-07T23:56:28.070Z,28.45
2023-01-07T23:58:55.989Z,29.60
